createdAt,value
2019-04-22T00:00:51.453Z,17.32
2019-04-22T00:03:32.551Z,17.31
2019-04-22T00:06:12.877Z,17.33
2019-04-22T00:08:56.139Z,17.21
2019-04-22T00:11:29.191Z,17.09
2019-04-22T00:16:43.610Z,17.00
2019-04-22T00:19:24.360Z,16.87
2019-04-22T00:21:40.426Z,16.86
2019-04-22T00:24:10.735Z,16.74
2019-04-22T00:26:44.455Z,16.78
2019-04-22T00:29:39.481Z,16.66
2019-04-22T00:31:51.711Z,16.66
2019-04-22T00:34:16.746Z,16.59
2019-04-22T00:36:55.576Z,16.60
2019-04-22T00:39:31.650Z,16.56
2019-04-22T00:42:01.861Z,16.52
2019-04-22T00:44:35.449Z,16.62
2019-04-22T00:47:07.370Z,16.50
2019-04-22T00:54:37.717Z,16.28
2019-04-22T00:57:12.072Z,16.26
2019-04-22T00:59:40.500Z,16.10
2019-04-22T01:02:13.406Z,16.01
2019-04-22T01:04:51.775Z,16.02
2019-04-22T01:07:17.690Z,15.98
2019-04-22T01:09:55.873Z,15.89
2019-04-22T01:12:28.553Z,15.92
2019-04-22T01:14:55.343Z,15.94
2019-04-22T01:17:25.597Z,15.94
2019-04-22T01:22:27.070Z,15.91
2019-04-22T01:24:59.288Z,15.82
2019-04-22T01:27:32.416Z,15.88
2019-04-22T01:29:59.668Z,15.93
2019-04-22T01:32:28.714Z,15.84
2019-04-22T01:35:05.942Z,15.91
2019-04-22T01:37:46.057Z,15.87
2019-04-22T01:40:25.338Z,15.80
2019-04-22T01:43:05.521Z,15.73
2019-04-22T01:45:25.830Z,15.61
2019-04-22T01:47:55.163Z,15.76
2019-04-22T01:50:33.842Z,15.66
2019-04-22T01:53:06.778Z,15.69
2019-04-22T01:55:41.747Z,15.54
2019-04-22T01:58:00.270Z,15.53
2019-04-22T02:00:39.964Z,15.47
2019-04-22T02:03:10.312Z,15.47
2019-04-22T02:05:44.222Z,15.39
2019-04-22T02:08:28.399Z,15.43
2019-04-22T02:10:49.231Z,15.35
2019-04-22T02:13:25.207Z,15.34
2019-04-22T02:15:52.486Z,15.38
2019-04-22T02:18:37.805Z,15.36
2019-04-22T02:20:54.522Z,15.36
2019-04-22T02:36:27.985Z,15.19
2019-04-22T02:41:26.317Z,15.04
2019-04-22T02:59:12.272Z,15.08
2019-04-22T03:04:09.351Z,15.06
2019-04-22T03:09:19.011Z,15.09
2019-04-22T03:12:00.904Z,15.00
2019-04-22T03:16:50.358Z,14.94
2019-04-22T03:19:43.388Z,14.97
2019-04-22T03:22:00.025Z,14.95
2019-04-22T03:24:25.757Z,14.89
2019-04-22T03:27:01.042Z,14.90
2019-04-22T03:40:22.395Z,14.84
2019-04-22T03:53:06.210Z,15.01
2019-04-22T03:58:01.889Z,14.81
2019-04-22T04:00:47.811Z,14.74
2019-04-22T04:10:42.064Z,14.77
2019-04-22T04:15:34.359Z,14.98
2019-04-22T04:18:09.176Z,14.97
2019-04-22T04:21:01.096Z,14.97
2019-04-22T04:25:52.532Z,14.92
2019-04-22T04:28:43.832Z,15.24
2019-04-22T04:31:09.826Z,15.36
2019-04-22T04:33:36.246Z,15.42
2019-04-22T04:36:03.524Z,15.58
2019-04-22T04:38:38.802Z,15.65
2019-04-22T04:41:10.168Z,16.20
2019-04-22T04:51:16.109Z,21.53
2019-04-22T04:56:33.968Z,24.68
2019-04-22T04:58:56.488Z,25.82
2019-04-22T05:04:04.926Z,27.72
2019-04-22T05:06:22.024Z,28.06
2019-04-22T05:11:32.200Z,29.77
2019-04-22T05:14:03.774Z,30.56
2019-04-22T05:19:02.518Z,31.66
2019-04-22T05:21:21.842Z,32.63
2019-04-22T05:24:05.545Z,33.04
2019-04-22T05:26:34.211Z,33.04
2019-04-22T05:29:05.411Z,33.28
2019-04-22T05:31:37.559Z,34.71
2019-04-22T05:34:09.584Z,35.26
2019-04-22T05:36:41.286Z,34.89
2019-04-22T05:39:11.477Z,36.09
2019-04-22T05:41:48.778Z,36.11
2019-04-22T05:44:22.252Z,37.15
2019-04-22T05:46:45.266Z,37.74
2019-04-22T05:49:25.749Z,38.91
2019-04-22T05:51:54.919Z,40.30
2019-04-22T05:54:27.340Z,39.39
2019-04-22T05:57:06.622Z,39.33
2019-04-22T05:59:36.149Z,41.22
2019-04-22T06:02:05.378Z,42.02
2019-04-22T06:04:43.203Z,41.75
2019-04-22T06:07:06.591Z,41.05
2019-04-22T06:09:46.782Z,43.41
2019-04-22T06:12:14.782Z,44.34
2019-04-22T06:14:47.910Z,44.50
2019-04-22T06:17:24.658Z,44.95
2019-04-22T06:19:50.827Z,45.48
2019-04-22T06:25:01.007Z,45.68
2019-04-22T06:27:39.017Z,47.25
2019-04-22T06:30:11.138Z,46.75
2019-04-22T06:32:42.215Z,46.80
2019-04-22T06:35:23.728Z,46.63
2019-04-22T06:37:54.734Z,46.75
2019-04-22T06:40:20.794Z,47.78
2019-04-22T06:43:01.435Z,46.78
2019-04-22T06:45:24.981Z,47.89
2019-04-22T06:53:02.705Z,49.00
2019-04-22T06:55:41.366Z,49.01
2019-04-22T06:58:10.051Z,49.29
2019-04-22T07:00:42.878Z,49.45
2019-04-22T07:06:00.233Z,49.59
2019-04-22T07:13:23.499Z,50.92
2019-04-22T07:18:33.107Z,51.85
2019-04-22T07:21:01.451Z,52.45
2019-04-22T07:23:34.933Z,53.43
2019-04-22T07:26:04.362Z,53.43
2019-04-22T07:28:29.127Z,52.66
2019-04-22T07:31:12.961Z,53.43
2019-04-22T07:33:48.796Z,54.94
2019-04-22T07:36:53.498Z,53.82
2019-04-22T07:38:43.853Z,53.80
2019-04-22T07:41:14.637Z,55.82
2019-04-22T07:44:10.234Z,55.66
2019-04-22T07:46:18.738Z,55.87
2019-04-22T07:48:57.755Z,54.19
2019-04-22T07:51:32.623Z,56.31
2019-04-22T07:54:01.278Z,56.44
2019-04-22T07:56:36.703Z,56.05
2019-04-22T07:59:09.581Z,55.85
2019-04-22T08:01:38.028Z,56.57
2019-04-22T08:04:24.420Z,57.16
2019-04-22T08:06:49.426Z,57.12
2019-04-22T08:09:19.637Z,55.85
2019-04-22T08:11:51.212Z,55.76
2019-04-22T08:14:24.182Z,56.82
2019-04-22T08:17:01.500Z,54.89
2019-04-22T08:21:58.120Z,53.68
2019-04-22T08:24:35.963Z,53.32
2019-04-22T08:27:04.835Z,53.48
2019-04-22T08:32:08.678Z,54.37
2019-04-22T08:34:38.847Z,52.62
2019-04-22T08:39:43.224Z,52.30
2019-04-22T08:42:21.618Z,50.81
2019-04-22T08:47:29.082Z,52.12
2019-04-22T08:50:06.029Z,51.87
2019-04-22T08:52:30.285Z,51.32
2019-04-22T08:55:07.793Z,47.80
2019-04-22T09:00:03.587Z,48.20
2019-04-22T09:02:41.496Z,45.79
2019-04-22T09:05:11.946Z,45.09
2019-04-22T09:07:36.838Z,43.37
2019-04-22T09:10:13.024Z,43.95
2019-04-22T09:12:56.878Z,45.49
2019-04-22T09:15:18.520Z,45.73
2019-04-22T09:17:55.852Z,45.54
2019-04-22T09:20:28.593Z,45.88
2019-04-22T09:23:07.605Z,42.23
2019-04-22T09:25:34.324Z,46.24
2019-04-22T09:28:10.449Z,46.47
2019-04-22T09:33:14.060Z,45.99
2019-04-22T09:36:00.067Z,41.79
2019-04-22T09:41:10.318Z,41.55
2019-04-22T09:43:24.388Z,39.68
2019-04-22T09:45:53.238Z,40.71
2019-04-22T09:48:33.644Z,41.75
2019-04-22T09:51:00.473Z,42.03
2019-04-22T09:53:36.538Z,39.03
2019-04-22T09:56:08.055Z,40.73
2019-04-22T09:58:40.122Z,39.56
2019-04-22T10:01:20.297Z,37.47
2019-04-22T10:03:45.225Z,36.02
2019-04-22T10:06:23.278Z,35.22
2019-04-22T10:11:22.800Z,31.67
2019-04-22T10:13:54.198Z,30.45
2019-04-22T10:16:31.593Z,29.31
2019-04-22T10:19:00.936Z,27.97
2019-04-22T10:24:03.437Z,30.85
2019-04-22T10:26:39.657Z,30.06
2019-04-22T10:29:11.020Z,29.17
2019-04-22T10:31:49.842Z,28.17
2019-04-22T10:34:11.537Z,27.82
2019-04-22T10:36:28.160Z,27.63
2019-04-22T10:38:58.542Z,27.81
2019-04-22T10:41:30.495Z,27.44
2019-04-22T10:44:01.345Z,27.43
2019-04-22T10:46:30.755Z,27.78
2019-04-22T10:49:04.140Z,28.27
2019-04-22T10:51:34.879Z,27.86
2019-04-22T10:54:05.342Z,27.80
2019-04-22T10:56:36.972Z,27.55
2019-04-22T10:59:08.783Z,27.85
2019-04-22T11:01:40.403Z,27.83
2019-04-22T11:04:11.185Z,28.22
2019-04-22T11:06:52.333Z,28.07
2019-04-22T11:09:16.298Z,29.63
2019-04-22T11:11:56.607Z,29.90
2019-04-22T11:14:18.976Z,28.49
2019-04-22T11:16:53.379Z,28.61
2019-04-22T11:19:24.040Z,29.45
2019-04-22T11:22:05.054Z,29.39
2019-04-22T11:24:26.654Z,29.50
2019-04-22T11:27:01.163Z,29.69
2019-04-22T11:29:31.817Z,30.37
2019-04-22T11:32:06.333Z,30.33
2019-04-22T11:34:37.477Z,28.31
2019-04-22T11:37:06.553Z,27.33
2019-04-22T11:39:38.594Z,27.78
2019-04-22T11:42:07.927Z,28.00
2019-04-22T11:44:37.392Z,29.03
2019-04-22T11:47:09.676Z,29.06
2019-04-22T11:49:41.644Z,30.02
2019-04-22T11:52:14.814Z,29.96
2019-04-22T11:54:46.730Z,29.36
2019-04-22T11:57:19.138Z,29.30
2019-04-22T11:59:51.066Z,29.30
2019-04-22T12:02:25.400Z,29.65
2019-04-22T12:04:56.178Z,28.84
2019-04-22T12:07:29.635Z,28.52
2019-04-22T12:09:59.582Z,28.68
2019-04-22T12:12:32.027Z,29.99
2019-04-22T12:15:04.170Z,29.78
2019-04-22T12:17:38.225Z,29.26
2019-04-22T12:20:14.588Z,28.27
2019-04-22T12:22:45.034Z,29.20
2019-04-22T12:25:32.332Z,29.46
2019-04-22T12:27:52.938Z,29.16
2019-04-22T12:30:23.709Z,28.66
2019-04-22T12:32:54.674Z,28.29
2019-04-22T12:35:24.485Z,29.11
2019-04-22T12:38:00.735Z,28.97
2019-04-22T12:40:38.244Z,29.27
2019-04-22T12:43:04.148Z,28.75
2019-04-22T12:45:34.210Z,28.09
2019-04-22T12:48:06.397Z,27.58
2019-04-22T12:50:40.826Z,28.48
2019-04-22T12:53:12.617Z,29.13
2019-04-22T12:55:42.041Z,29.09
2019-04-22T12:58:13.881Z,29.57
2019-04-22T13:00:44.841Z,29.28
2019-04-22T13:03:16.123Z,29.18
2019-04-22T13:05:47.081Z,29.03
2019-04-22T13:08:18.049Z,29.28
2019-04-22T13:10:55.211Z,29.52
2019-04-22T13:13:19.016Z,29.12
2019-04-22T13:15:50.913Z,28.57
2019-04-22T13:18:31.800Z,28.62
2019-04-22T13:20:52.929Z,29.17
2019-04-22T13:23:25.756Z,28.68
2019-04-22T13:25:55.146Z,28.34
2019-04-22T13:28:27.130Z,27.05
2019-04-22T13:31:01.403Z,28.50
2019-04-22T13:33:30.559Z,28.81
2019-04-22T13:35:59.893Z,29.01
2019-04-22T13:38:33.175Z,29.36
2019-04-22T13:41:17.261Z,28.77
2019-04-22T13:43:34.734Z,28.29
2019-04-22T13:46:05.615Z,29.02
2019-04-22T13:48:58.996Z,29.37
2019-04-22T13:51:37.605Z,29.48
2019-04-22T13:56:35.196Z,28.96
2019-04-22T13:58:54.183Z,29.20
2019-04-22T14:01:16.554Z,28.45
2019-04-22T14:03:54.727Z,27.10
2019-04-22T14:06:25.181Z,28.33
2019-04-22T14:08:55.725Z,28.65
2019-04-22T14:11:34.500Z,27.91
2019-04-22T14:13:58.723Z,28.07
2019-04-22T14:16:31.162Z,28.67
2019-04-22T14:19:02.071Z,28.59
2019-04-22T14:21:32.737Z,28.07
2019-04-22T14:24:02.711Z,28.10
2019-04-22T14:26:44.157Z,27.75
2019-04-22T14:29:04.279Z,28.21
2019-04-22T14:31:38.309Z,27.95
2019-04-22T14:34:10.204Z,27.73
2019-04-22T14:36:41.400Z,27.52
2019-04-22T14:39:12.312Z,27.63
2019-04-22T14:41:57.371Z,27.68
2019-04-22T14:49:43.388Z,27.98
2019-04-22T14:52:15.346Z,28.46
2019-04-22T14:54:37.699Z,27.87
2019-04-22T14:56:56.323Z,28.19
2019-04-22T14:59:27.006Z,27.56
2019-04-22T15:01:58.202Z,27.86
2019-04-22T15:04:29.064Z,27.87
2019-04-22T15:07:01.066Z,27.91
2019-04-22T15:09:32.289Z,27.61
2019-04-22T15:12:10.955Z,27.49
2019-04-22T15:14:35.594Z,26.90
2019-04-22T15:17:09.135Z,27.68
2019-04-22T15:19:45.906Z,27.32
2019-04-22T15:22:16.782Z,27.38
2019-04-22T15:24:46.962Z,26.79
2019-04-22T15:27:18.343Z,27.10
2019-04-22T15:29:49.328Z,27.16
2019-04-22T15:32:21.183Z,26.76
2019-04-22T15:34:53.303Z,26.55
2019-04-22T15:37:24.357Z,27.07
2019-04-22T15:39:56.674Z,26.53
2019-04-22T15:42:37.326Z,26.97
2019-04-22T15:45:02.608Z,27.52
2019-04-22T15:47:34.782Z,27.50
2019-04-22T15:50:07.932Z,27.43
2019-04-22T15:52:44.109Z,27.44
2019-04-22T15:55:10.995Z,27.35
2019-04-22T15:57:42.046Z,27.13
2019-04-22T16:00:25.496Z,26.09
2019-04-22T16:02:45.801Z,26.71
2019-04-22T16:05:15.235Z,26.82
2019-04-22T16:07:45.851Z,26.98
2019-04-22T16:10:17.805Z,26.76
2019-04-22T16:12:57.247Z,26.73
2019-04-22T16:15:22.494Z,26.74
2019-04-22T16:17:55.014Z,27.10
2019-04-22T16:20:25.987Z,26.83
2019-04-22T16:23:01.438Z,26.96
2019-04-22T16:25:45.221Z,26.87
2019-04-22T16:28:15.453Z,25.87
2019-04-22T16:30:46.193Z,25.89
2019-04-22T16:33:17.316Z,25.49
2019-04-22T16:35:49.163Z,26.27
2019-04-22T16:38:22.514Z,26.35
2019-04-22T16:40:54.830Z,26.14
2019-04-22T16:43:26.602Z,26.37
2019-04-22T16:46:01.511Z,26.01
2019-04-22T16:48:33.890Z,25.80
2019-04-22T16:51:04.525Z,25.62
2019-04-22T16:53:35.127Z,25.85
2019-04-22T16:56:04.888Z,26.06
2019-04-22T16:58:38.889Z,25.39
2019-04-22T17:01:12.307Z,25.16
2019-04-22T17:04:02.833Z,25.90
2019-04-22T17:06:35.316Z,25.57
2019-04-22T17:09:08.918Z,25.39
2019-04-22T17:11:40.239Z,25.06
2019-04-22T17:14:11.197Z,25.03
2019-04-22T17:16:42.061Z,25.14
2019-04-22T17:19:13.084Z,24.91
2019-04-22T17:21:43.687Z,24.74
2019-04-22T17:24:13.977Z,24.65
2019-04-22T17:26:44.267Z,24.99
2019-04-22T17:29:14.939Z,25.01
2019-04-22T17:31:52.578Z,24.58
2019-04-22T17:34:17.829Z,25.01
2019-04-22T17:36:51.020Z,24.56
2019-04-22T17:39:35.705Z,24.44
2019-04-22T17:42:22.158Z,24.36
2019-04-22T17:45:00.790Z,24.44
2019-04-22T17:47:23.651Z,24.28
2019-04-22T17:50:10.628Z,23.52
2019-04-22T17:52:36.438Z,23.61
2019-04-22T17:55:04.831Z,23.70
2019-04-22T17:57:39.134Z,23.87
2019-04-22T18:00:14.359Z,23.60
2019-04-22T18:02:42.957Z,23.84
2019-04-22T18:05:03.518Z,23.46
2019-04-22T18:07:56.012Z,23.45
2019-04-22T18:10:31.010Z,22.93
2019-04-22T18:13:11.424Z,23.31
2019-04-22T18:15:33.462Z,23.23
2019-04-22T18:18:08.698Z,22.82
2019-04-22T18:20:29.355Z,23.10
2019-04-22T18:22:54.746Z,22.98
2019-04-22T18:25:43.021Z,22.70
2019-04-22T18:28:17.670Z,22.78
2019-04-22T18:30:34.477Z,22.56
2019-04-22T18:33:16.399Z,22.62
2019-04-22T18:35:47.852Z,22.38
2019-04-22T18:38:29.733Z,22.48
2019-04-22T18:40:50.622Z,22.31
2019-04-22T18:43:28.857Z,22.03
2019-04-22T18:46:03.653Z,22.26
2019-04-22T18:48:21.788Z,22.07
2019-04-22T18:51:11.909Z,22.19
2019-04-22T18:54:00.049Z,22.04
2019-04-22T18:56:39.170Z,21.69
2019-04-22T18:58:54.911Z,21.74
2019-04-22T19:01:17.442Z,21.34
2019-04-22T19:03:59.967Z,21.60
2019-04-22T19:06:47.363Z,21.52
2019-04-22T19:09:17.150Z,21.33
2019-04-22T19:11:52.191Z,21.34
2019-04-22T19:14:17.884Z,21.00
2019-04-22T19:16:59.347Z,21.11
2019-04-22T19:21:51.360Z,20.85
2019-04-22T19:24:19.715Z,20.97
2019-04-22T19:26:58.771Z,20.47
2019-04-22T19:29:31.703Z,20.82
2019-04-22T19:32:01.311Z,20.52
2019-04-22T19:34:32.227Z,20.75
2019-04-22T19:37:10.821Z,20.70
2019-04-22T19:39:40.910Z,20.74
2019-04-22T19:42:19.039Z,20.43
2019-04-22T19:44:43.775Z,20.73
2019-04-22T19:47:25.140Z,20.45
2019-04-22T19:52:24.957Z,20.38
2019-04-22T19:54:54.927Z,20.35
2019-04-22T19:57:22.523Z,20.24
2019-04-22T20:00:11.280Z,20.26
2019-04-22T20:02:45.269Z,20.37
2019-04-22T20:05:26.173Z,19.95
2019-04-22T20:07:49.913Z,19.97
2019-04-22T20:10:32.127Z,19.61
2019-04-22T20:12:56.687Z,20.13
2019-04-22T20:15:30.270Z,19.87
2019-04-22T20:20:51.239Z,20.28
2019-04-22T20:23:09.883Z,20.20
2019-04-22T20:25:40.867Z,20.34
2019-04-22T20:28:19.463Z,20.02
2019-04-22T20:30:50.891Z,19.72
2019-04-22T20:33:29.208Z,19.98
2019-04-22T20:35:56.602Z,20.10
2019-04-22T20:38:27.624Z,19.80
2019-04-22T20:40:55.049Z,19.80
2019-04-22T20:43:35.740Z,20.01
2019-04-22T20:46:05.857Z,19.73
2019-04-22T20:48:40.664Z,19.92
2019-04-22T20:51:12.480Z,19.79
2019-04-22T20:53:45.282Z,19.80
2019-04-22T20:56:16.021Z,19.92
2019-04-22T20:58:46.549Z,20.01
2019-04-22T21:01:11.709Z,20.04
2019-04-22T21:03:40.891Z,19.87
2019-04-22T21:06:23.256Z,19.88
2019-04-22T21:08:57.987Z,19.95
2019-04-22T21:11:24.843Z,20.04
2019-04-22T21:13:56.090Z,19.88
2019-04-22T21:16:32.924Z,19.88
2019-04-22T21:18:58.147Z,19.83
2019-04-22T21:21:37.677Z,19.88
2019-04-22T21:23:57.243Z,19.84
2019-04-22T21:26:33.697Z,19.79
2019-04-22T21:29:07.219Z,19.77
2019-04-22T21:31:50.308Z,19.62
2019-04-22T21:34:09.532Z,19.62
2019-04-22T21:36:48.162Z,19.37
2019-04-22T21:39:15.591Z,19.43
2019-04-22T21:41:46.844Z,19.37
2019-04-22T21:44:18.456Z,19.43
2019-04-22T21:46:59.028Z,19.03
2019-04-22T21:49:32.535Z,19.45
2019-04-22T21:51:58.452Z,18.98
2019-04-22T21:54:31.593Z,19.16
2019-04-22T21:57:13.645Z,19.26
2019-04-22T21:59:34.286Z,19.15
2019-04-22T22:02:12.366Z,19.31
2019-04-22T22:04:38.622Z,19.26
2019-04-22T22:07:05.304Z,19.06
2019-04-22T22:09:48.985Z,19.32
2019-04-22T22:12:17.836Z,19.39
2019-04-22T22:14:58.806Z,19.11
2019-04-22T22:17:25.992Z,19.24
2019-04-22T22:19:52.900Z,19.07
2019-04-22T22:23:12.081Z,19.06
2019-04-22T22:25:01.437Z,19.28
2019-04-22T22:27:35.390Z,19.15
2019-04-22T22:30:18.747Z,19.04
2019-04-22T22:32:43.775Z,19.13
2019-04-22T22:35:10.016Z,19.13
2019-04-22T22:37:31.238Z,19.33
2019-04-22T22:39:57.702Z,19.20
2019-04-22T22:42:30.183Z,19.31
2019-04-22T22:45:07.789Z,19.06
2019-04-22T22:47:44.212Z,19.33
2019-04-22T22:50:20.127Z,19.25
2019-04-22T22:53:03.060Z,19.06
2019-04-22T22:55:24.796Z,19.33
2019-04-22T22:58:01.349Z,19.17
2019-04-22T23:00:33.904Z,19.04
2019-04-22T23:03:23.244Z,18.92
2019-04-22T23:05:37.754Z,19.01
2019-04-22T23:08:07.776Z,18.81
2019-04-22T23:10:52.621Z,18.83
2019-04-22T23:13:20.410Z,18.79
2019-04-22T23:15:39.244Z,18.84
2019-04-22T23:17:56.410Z,18.82
2019-04-22T23:20:32.488Z,18.84
2019-04-22T23:23:36.027Z,18.86
2019-04-22T23:25:54.742Z,18.93
2019-04-22T23:28:22.687Z,18.15
2019-04-22T23:31:12.442Z,18.72
2019-04-22T23:33:46.324Z,18.70
2019-04-22T23:36:32.437Z,19.00
2019-04-22T23:39:14.041Z,19.07
2019-04-22T23:41:46.355Z,18.84
2019-04-22T23:44:21.011Z,18.95
2019-04-22T23:46:56.804Z,18.99
2019-04-22T23:49:31.507Z,19.02
2019-04-22T23:52:08.920Z,19.10
2019-04-22T23:54:50.803Z,19.02
2019-04-22T23:57:23.764Z,19.07
2019-04-22T23:59:55.301Z,19.00
